Etusivu
METAR-TAF:

METAR-TAF

Lentoasemat :

Arlandan kansainvälinen lentoasema

Tukholma-Arlanda, Ruotsi

Leveyspiiri: 59-39N, Pituuspiiri: 017-57E, korkeus merenpinnasta: 38 m

Tämänhetkinen sää

Tämä raportti tehtiin 28 minuuttia sitten, kello 09.50 UTC
Tuuli 12 kn etelästä, vaihdellen etelän/kaakon ja lounaan välillä
Lämpötila 22°C
Kosteus 57%
Ilmanpaine 1015 hPa
Näkyvyys 10 km tai enemmän
Muutamia pilviä 3700 ft:n korkeudessa

METAR: ESSA 160950Z 19012KT 160V220 9999 FEW037 22/13 Q1015 NOSIG

Aika: 12:18 (10:18 UTC)

Sääennuste

Tämä raportti tehtiin 4 tuntia ja 48 minuuttia sitten, kello 05.30 UTC
Ennuste voimassa 16. päivästä klo 06 UTC - 17. päivään klo 06 UTC
Tuuli 10 kn etelästä/lounaasta
Näkyvyys 10 km tai enemmän
ei pilviä alle 1500 m:ssä eikä cumulonimbus-pilviä

TAF: ESSA 160530Z 1606/1706 21010KT CAVOK

Säähavainnot ja -ennusteet yli 4000 lentoasemalta (METAR- ja TAF-raportit).

Käytössä olevat sääasemat on merkitty karttaan keltaisilla ja punaisilla pisteillä.

Aseta hiiri pisteen päälle nähdäksesi sääaseman nimen.

Klikkaa sitten nähdäksesi säähavainnot ja -ennusteet.

Kartan vaihtaminen: klikkaa mustalla rastilla varustettuja vihreitä pisteitä, niin voit zoomata sisään; viivalla varustettua vihreää pistettä, niin voit zoomata ulos tai vihreitä nuolia, niin pääset viereisille kartoille.


METAR-TAF: